createdAt,value
2023-02-01T00:00:22.000Z,1005.625344
2023-02-01T00:00:52.000Z,1005.625344
2023-02-01T00:01:08.000Z,1005.625344
2023-02-01T00:01:43.000Z,1005.625344
2023-02-01T00:02:17.000Z,1005.7269360000001
2023-02-01T00:02:47.000Z,1005.7269360000001
2023-02-01T00:03:04.000Z,1005.828528
2023-02-01T00:03:37.000Z,1005.828528
2023-02-01T00:04:01.000Z,1005.625344
2023-02-01T00:04:19.000Z,1005.625344
2023-02-01T00:04:52.000Z,1005.625344
2023-02-01T00:05:27.000Z,1005.93012
2023-02-01T00:05:57.000Z,1005.93012
2023-02-01T00:06:32.000Z,1005.7269360000001
2023-02-01T00:07:02.000Z,1005.93012
2023-02-01T00:07:32.000Z,1005.93012
2023-02-01T00:07:59.000Z,1005.625344
2023-02-01T00:08:22.000Z,1005.625344
2023-02-01T00:08:52.000Z,1005.625344
2023-02-01T00:09:29.000Z,1005.7269360000001
2023-02-01T00:09:57.000Z,1005.7269360000001
2023-02-01T00:10:42.000Z,1005.828528
2023-02-01T00:11:12.000Z,1005.828528
2023-02-01T00:11:36.000Z,1005.828528
2023-02-01T00:11:59.000Z,1005.7269360000001
2023-02-01T00:12:22.000Z,1005.7269360000001
2023-02-01T00:12:52.000Z,1005.7269360000001
2023-02-01T00:13:27.000Z,1005.828528
2023-02-01T00:13:57.000Z,1005.828528
2023-02-01T00:14:32.000Z,1005.828528
2023-02-01T00:15:02.000Z,1005.828528
2023-02-01T00:15:32.000Z,1005.828528
2023-02-01T00:15:59.000Z,1005.828528
2023-02-01T00:16:22.000Z,1005.828528
2023-02-01T00:16:52.000Z,1005.828528
2023-02-01T00:17:27.000Z,1005.828528
2023-02-01T00:17:55.000Z,1005.828528
2023-02-01T00:18:27.000Z,1005.828528
2023-02-01T00:18:57.000Z,1006.133304
2023-02-01T00:19:27.000Z,1006.133304
2023-02-01T00:19:53.000Z,1006.133304
2023-02-01T00:20:19.000Z,1005.625344
2023-02-01T00:20:47.000Z,1005.625344
2023-02-01T00:21:13.000Z,1005.93012
2023-02-01T00:21:39.000Z,1005.93012
2023-02-01T00:22:07.000Z,1005.7269360000001
2023-02-01T00:22:32.000Z,1005.7269360000001
2023-02-01T00:23:02.000Z,1006.031712
2023-02-01T00:23:32.000Z,1006.031712
2023-02-01T00:23:59.000Z,1005.828528
2023-02-01T00:24:22.000Z,1005.828528
2023-02-01T00:24:52.000Z,1005.828528
2023-02-01T00:25:27.000Z,1005.93012
2023-02-01T00:25:57.000Z,1005.93012
2023-02-01T00:26:32.000Z,1005.7269360000001
2023-02-01T00:27:02.000Z,1005.93012
2023-02-01T00:27:32.000Z,1005.93012
2023-02-01T00:27:59.000Z,1005.93012
2023-02-01T00:28:22.000Z,1005.93012
2023-02-01T00:28:53.000Z,1005.93012
2023-02-01T00:29:27.000Z,1005.7269360000001
2023-02-01T00:29:57.000Z,1005.7269360000001
2023-02-01T00:30:32.000Z,1005.93012
2023-02-01T00:31:02.000Z,1005.828528
2023-02-01T00:31:32.000Z,1005.828528
2023-02-01T00:31:59.000Z,1005.93012
2023-02-01T00:32:22.000Z,1005.93012
2023-02-01T00:32:52.000Z,1005.93012
2023-02-01T00:33:27.000Z,1005.828528
2023-02-01T00:33:57.000Z,1005.828528
2023-02-01T00:34:32.000Z,1005.7269360000001
2023-02-01T00:35:02.000Z,1005.93012
2023-02-01T00:35:32.000Z,1005.93012
2023-02-01T00:36:02.000Z,1005.7269360000001
2023-02-01T00:36:25.000Z,1005.7269360000001
2023-02-01T00:36:52.000Z,1005.7269360000001
2023-02-01T00:37:27.000Z,1005.828528
2023-02-01T00:37:57.000Z,1005.828528
2023-02-01T00:38:32.000Z,1005.7269360000001
2023-02-01T00:39:02.000Z,1005.7269360000001
2023-02-01T00:39:32.000Z,1005.7269360000001
2023-02-01T00:39:59.000Z,1005.625344
2023-02-01T00:40:22.000Z,1005.625344
2023-02-01T00:40:52.000Z,1005.625344
2023-02-01T00:41:27.000Z,1005.828528
2023-02-01T00:41:57.000Z,1005.828528
2023-02-01T00:42:32.000Z,1005.625344
2023-02-01T00:43:02.000Z,1005.7269360000001
2023-02-01T00:43:33.000Z,1005.7269360000001
2023-02-01T00:44:02.000Z,1005.7269360000001
2023-02-01T00:44:25.000Z,1005.7269360000001
2023-02-01T00:44:52.000Z,1005.7269360000001
2023-02-01T00:45:27.000Z,1005.4221600000001
2023-02-01T00:45:55.000Z,1005.4221600000001
2023-02-01T00:46:12.000Z,1005.5237520000001
2023-02-01T00:46:43.000Z,1005.5237520000001
2023-02-01T00:47:12.000Z,1005.4221600000001
2023-02-01T00:47:35.000Z,1005.4221600000001
2023-02-01T00:48:02.000Z,1005.4221600000001
2023-02-01T00:48:25.000Z,1005.4221600000001
2023-02-01T00:48:52.000Z,1005.4221600000001
2023-02-01T00:49:27.000Z,1005.625344
2023-02-01T00:50:07.000Z,1005.5237520000001
2023-02-01T00:50:32.000Z,1005.5237520000001
2023-02-01T00:50:57.000Z,1005.3205680000001
2023-02-01T00:51:27.000Z,1005.3205680000001
2023-02-01T00:51:53.000Z,1005.3205680000001
2023-02-01T00:52:19.000Z,1005.5237520000001
2023-02-01T00:52:57.000Z,1005.5237520000001
2023-02-01T00:53:27.000Z,1005.7269360000001
2023-02-01T00:53:57.000Z,1005.7269360000001
2023-02-01T00:54:32.000Z,1005.5237520000001
2023-02-01T00:55:02.000Z,1005.7269360000001
2023-02-01T00:55:32.000Z,1005.7269360000001
2023-02-01T00:55:59.000Z,1005.625344
2023-02-01T00:56:22.000Z,1005.625344
2023-02-01T00:56:52.000Z,1005.625344
2023-02-01T00:57:27.000Z,1005.828528
2023-02-01T00:57:57.000Z,1005.828528
2023-02-01T00:58:32.000Z,1005.828528
2023-02-01T00:59:12.000Z,1005.4221600000001
2023-02-01T00:59:35.000Z,1005.4221600000001
2023-02-01T01:00:02.000Z,1005.7269360000001
2023-02-01T01:00:27.000Z,1005.7269360000001
2023-02-01T01:00:52.000Z,1005.7269360000001
2023-02-01T01:01:18.000Z,1005.7269360000001
2023-02-01T01:01:43.000Z,1005.7269360000001
2023-02-01T01:02:07.000Z,1005.4221600000001
2023-02-01T01:02:33.000Z,1005.4221600000001
2023-02-01T01:03:02.000Z,1005.828528
2023-02-01T01:03:32.000Z,1005.828528
2023-02-01T01:03:59.000Z,1005.625344
2023-02-01T01:04:23.000Z,1005.625344
2023-02-01T01:04:52.000Z,1005.625344
2023-02-01T01:05:27.000Z,1005.7269360000001
2023-02-01T01:05:57.000Z,1005.7269360000001
2023-02-01T01:06:33.000Z,1005.7269360000001
2023-02-01T01:07:02.000Z,1005.625344
2023-02-01T01:07:32.000Z,1005.625344
2023-02-01T01:07:59.000Z,1005.625344
2023-02-01T01:08:22.000Z,1005.625344
2023-02-01T01:09:02.000Z,1005.7269360000001
2023-02-01T01:09:27.000Z,1005.7269360000001
2023-02-01T01:09:55.000Z,1005.7269360000001
2023-02-01T01:10:17.000Z,1005.7269360000001
2023-02-01T01:10:47.000Z,1005.7269360000001
2023-02-01T01:11:02.000Z,1005.5237520000001
2023-02-01T01:11:37.000Z,1005.5237520000001
2023-02-01T01:11:59.000Z,1005.5237520000001
2023-02-01T01:12:22.000Z,1005.5237520000001
2023-02-01T01:12:52.000Z,1005.5237520000001
2023-02-01T01:13:27.000Z,1005.7269360000001
2023-02-01T01:13:57.000Z,1005.7269360000001
2023-02-01T01:14:33.000Z,1005.828528
2023-02-01T01:15:02.000Z,1005.7269360000001
2023-02-01T01:15:32.000Z,1005.7269360000001
2023-02-01T01:15:52.000Z,1005.7269360000001
2023-02-01T01:16:22.000Z,1005.7269360000001
2023-02-01T01:17:02.000Z,1005.828528
2023-02-01T01:17:27.000Z,1005.828528
2023-02-01T01:17:57.000Z,1005.828528
2023-02-01T01:18:32.000Z,1005.5237520000001
2023-02-01T01:19:02.000Z,1005.93012
2023-02-01T01:19:32.000Z,1005.93012
2023-02-01T01:19:59.000Z,1005.7269360000001
2023-02-01T01:20:22.000Z,1005.7269360000001
2023-02-01T01:20:52.000Z,1005.7269360000001
2023-02-01T01:21:27.000Z,1005.7269360000001
2023-02-01T01:21:57.000Z,1005.7269360000001
2023-02-01T01:22:32.000Z,1005.625344
2023-02-01T01:23:02.000Z,1005.7269360000001
2023-02-01T01:23:32.000Z,1005.7269360000001
2023-02-01T01:24:02.000Z,1005.5237520000001
2023-02-01T01:24:35.000Z,1005.5237520000001
2023-02-01T01:25:02.000Z,1005.828528
2023-02-01T01:25:27.000Z,1005.828528
2023-02-01T01:25:55.000Z,1005.828528
2023-02-01T01:26:42.000Z,1005.625344
2023-02-01T01:27:12.000Z,1005.828528
2023-02-01T01:27:35.000Z,1005.828528
2023-02-01T01:28:02.000Z,1005.5237520000001
2023-02-01T01:28:25.000Z,1005.5237520000001
2023-02-01T01:28:52.000Z,1005.5237520000001
2023-02-01T01:29:27.000Z,1005.828528
2023-02-01T01:30:07.000Z,1005.7269360000001
2023-02-01T01:30:32.000Z,1005.7269360000001
2023-02-01T01:31:02.000Z,1005.828528
2023-02-01T01:31:32.000Z,1005.828528
2023-02-01T01:31:59.000Z,1005.5237520000001
2023-02-01T01:32:22.000Z,1005.5237520000001
2023-02-01T01:32:52.000Z,1005.5237520000001
2023-02-01T01:33:27.000Z,1005.5237520000001
2023-02-01T01:33:57.000Z,1005.5237520000001
2023-02-01T01:34:32.000Z,1005.5237520000001
2023-02-01T01:35:02.000Z,1005.5237520000001
2023-02-01T01:35:32.000Z,1005.5237520000001
2023-02-01T01:35:59.000Z,1005.625344
2023-02-01T01:36:22.000Z,1005.625344
2023-02-01T01:37:07.000Z,1005.625344
2023-02-01T01:37:32.000Z,1005.625344
2023-02-01T01:37:58.000Z,1005.625344
2023-02-01T01:38:32.000Z,1005.625344
2023-02-01T01:39:12.000Z,1005.4221600000001
2023-02-01T01:39:32.000Z,1005.4221600000001
2023-02-01T01:39:59.000Z,1005.4221600000001
2023-02-01T01:40:22.000Z,1005.4221600000001
2023-02-01T01:40:52.000Z,1005.4221600000001
2023-02-01T01:41:27.000Z,1005.625344
2023-02-01T01:41:57.000Z,1005.625344
2023-02-01T01:42:32.000Z,1005.625344
2023-02-01T01:43:02.000Z,1005.4221600000001
2023-02-01T01:43:32.000Z,1005.4221600000001
2023-02-01T01:43:59.000Z,1005.625344
2023-02-01T01:44:22.000Z,1005.625344
2023-02-01T01:44:52.000Z,1005.625344
2023-02-01T01:45:27.000Z,1005.625344
2023-02-01T01:46:07.000Z,1005.4221600000001
2023-02-01T01:46:32.000Z,1005.4221600000001
2023-02-01T01:47:02.000Z,1005.5237520000001
2023-02-01T01:47:32.000Z,1005.5237520000001
2023-02-01T01:47:59.000Z,1005.5237520000001
2023-02-01T01:48:22.000Z,1005.5237520000001
2023-02-01T01:48:52.000Z,1005.5237520000001
2023-02-01T01:49:27.000Z,1005.4221600000001
2023-02-01T01:49:57.000Z,1005.4221600000001
2023-02-01T01:50:32.000Z,1005.7269360000001
2023-02-01T01:51:02.000Z,1005.625344
2023-02-01T01:51:32.000Z,1005.625344
2023-02-01T01:51:59.000Z,1005.5237520000001
2023-02-01T01:52:22.000Z,1005.5237520000001
2023-02-01T01:52:57.000Z,1005.5237520000001
2023-02-01T01:53:37.000Z,1005.625344
2023-02-01T01:54:07.000Z,1005.4221600000001
2023-02-01T01:54:32.000Z,1005.4221600000001
2023-02-01T01:55:02.000Z,1005.625344
2023-02-01T01:55:32.000Z,1005.625344
2023-02-01T01:55:59.000Z,1005.625344
2023-02-01T01:56:22.000Z,1005.625344
2023-02-01T01:56:52.000Z,1005.625344
2023-02-01T01:57:28.000Z,1005.625344
2023-02-01T01:57:57.000Z,1005.625344
2023-02-01T01:58:32.000Z,1005.4221600000001
2023-02-01T01:59:02.000Z,1005.1173840000001
2023-02-01T01:59:33.000Z,1005.1173840000001
2023-02-01T01:59:59.000Z,1005.3205680000001
2023-02-01T02:00:22.000Z,1005.3205680000001
2023-02-01T02:00:52.000Z,1005.3205680000001
2023-02-01T02:01:37.000Z,1005.5237520000001
2023-02-01T02:02:07.000Z,1005.1173840000001
2023-02-01T02:02:32.000Z,1005.1173840000001
2023-02-01T02:02:57.000Z,1005.218976
2023-02-01T02:03:27.000Z,1005.218976
2023-02-01T02:03:53.000Z,1005.218976
2023-02-01T02:04:19.000Z,1005.218976
2023-02-01T02:04:47.000Z,1005.218976
2023-02-01T02:05:13.000Z,1005.3205680000001
2023-02-01T02:05:39.000Z,1005.3205680000001
2023-02-01T02:06:07.000Z,1005.015792
2023-02-01T02:06:32.000Z,1005.015792
2023-02-01T02:06:57.000Z,1005.218976
2023-02-01T02:07:27.000Z,1005.218976
2023-02-01T02:07:52.000Z,1005.218976
2023-02-01T02:08:22.000Z,1005.1173840000001
2023-02-01T02:08:53.000Z,1005.1173840000001
2023-02-01T02:09:27.000Z,1005.3205680000001
2023-02-01T02:09:57.000Z,1005.3205680000001
2023-02-01T02:10:32.000Z,1005.3205680000001
2023-02-01T02:11:02.000Z,1005.4221600000001
2023-02-01T02:11:32.000Z,1005.4221600000001
2023-02-01T02:11:59.000Z,1005.218976
2023-02-01T02:12:22.000Z,1005.218976
2023-02-01T02:12:52.000Z,1005.218976
2023-02-01T02:13:27.000Z,1005.3205680000001
2023-02-01T02:13:57.000Z,1005.3205680000001
2023-02-01T02:14:42.000Z,1005.3205680000001
2023-02-01T02:15:02.000Z,1005.3205680000001
2023-02-01T02:15:32.000Z,1005.3205680000001
2023-02-01T02:15:59.000Z,1005.1173840000001
2023-02-01T02:16:22.000Z,1005.1173840000001
2023-02-01T02:16:52.000Z,1005.1173840000001
2023-02-01T02:17:27.000Z,1005.3205680000001
2023-02-01T02:17:57.000Z,1005.3205680000001
2023-02-01T02:18:32.000Z,1005.1173840000001
2023-02-01T02:19:02.000Z,1005.3205680000001
2023-02-01T02:19:32.000Z,1005.3205680000001
2023-02-01T02:19:52.000Z,1005.3205680000001
2023-02-01T02:20:22.000Z,1005.218976
2023-02-01T02:20:52.000Z,1005.218976
2023-02-01T02:21:27.000Z,1005.1173840000001
2023-02-01T02:21:55.000Z,1005.1173840000001
2023-02-01T02:22:18.000Z,1005.1173840000001
2023-02-01T02:22:43.000Z,1005.1173840000001
2023-02-01T02:23:12.000Z,1005.1173840000001
2023-02-01T02:23:42.000Z,1005.1173840000001
2023-02-01T02:24:09.000Z,1005.218976
2023-02-01T02:24:35.000Z,1005.218976
2023-02-01T02:25:02.000Z,1005.015792
2023-02-01T02:25:27.000Z,1005.015792
2023-02-01T02:25:55.000Z,1005.015792
2023-02-01T02:26:18.000Z,1005.1173840000001
2023-02-01T02:26:47.000Z,1005.1173840000001
2023-02-01T02:27:03.000Z,1005.1173840000001
2023-02-01T02:27:32.000Z,1005.1173840000001
2023-02-01T02:27:59.000Z,1005.1173840000001
2023-02-01T02:28:22.000Z,1005.1173840000001
2023-02-01T02:28:52.000Z,1005.1173840000001
2023-02-01T02:29:09.000Z,1005.1173840000001
2023-02-01T02:29:42.000Z,1005.1173840000001
2023-02-01T02:30:17.000Z,1005.015792
2023-02-01T02:30:47.000Z,1005.015792
2023-02-01T02:31:02.000Z,1005.015792
2023-02-01T02:31:32.000Z,1005.015792
2023-02-01T02:31:59.000Z,1005.218976
2023-02-01T02:32:22.000Z,1005.218976
2023-02-01T02:32:53.000Z,1005.218976
2023-02-01T02:33:27.000Z,1005.015792
2023-02-01T02:34:07.000Z,1004.9142
2023-02-01T02:34:32.000Z,1004.9142
2023-02-01T02:34:57.000Z,1005.015792
2023-02-01T02:35:27.000Z,1005.015792
2023-02-01T02:35:53.000Z,1005.015792
2023-02-01T02:36:22.000Z,1004.9142
2023-02-01T02:36:52.000Z,1004.9142
2023-02-01T02:37:27.000Z,1005.1173840000001
2023-02-01T02:37:57.000Z,1005.1173840000001
2023-02-01T02:38:32.000Z,1005.015792
2023-02-01T02:39:02.000Z,1004.74488
2023-02-01T02:39:32.000Z,1004.74488
2023-02-01T02:39:59.000Z,1005.015792
2023-02-01T02:40:22.000Z,1005.015792
2023-02-01T02:40:52.000Z,1005.015792
2023-02-01T02:41:27.000Z,1005.1173840000001
2023-02-01T02:41:57.000Z,1005.1173840000001
2023-02-01T02:42:32.000Z,1004.9142
2023-02-01T02:43:12.000Z,1005.015792
2023-02-01T02:43:35.000Z,1005.015792
2023-02-01T02:44:02.000Z,1005.1173840000001
2023-02-01T02:44:22.000Z,1005.1173840000001
2023-02-01T02:44:52.000Z,1005.1173840000001
2023-02-01T02:45:27.000Z,1004.9142
2023-02-01T02:45:57.000Z,1004.9142
2023-02-01T02:46:32.000Z,1005.015792
2023-02-01T02:47:02.000Z,1005.015792
2023-02-01T02:47:32.000Z,1005.015792
2023-02-01T02:47:59.000Z,1005.015792
2023-02-01T02:48:22.000Z,1005.015792
2023-02-01T02:48:52.000Z,1005.015792
2023-02-01T02:49:27.000Z,1005.015792
2023-02-01T02:49:57.000Z,1005.015792
2023-02-01T02:50:32.000Z,1005.015792
2023-02-01T02:50:57.000Z,1004.9142
2023-02-01T02:51:27.000Z,1004.9142
2023-02-01T02:51:53.000Z,1004.9142
2023-02-01T02:52:19.000Z,1004.9142
2023-02-01T02:52:47.000Z,1004.9142
2023-02-01T02:53:14.000Z,1005.015792
2023-02-01T02:53:39.000Z,1005.015792
2023-02-01T02:54:07.000Z,1004.9142
2023-02-01T02:54:32.000Z,1004.9142
2023-02-01T02:55:02.000Z,1004.9142
2023-02-01T02:55:32.000Z,1004.9142
2023-02-01T02:55:59.000Z,1004.846472
2023-02-01T02:56:23.000Z,1004.846472
2023-02-01T02:56:53.000Z,1004.846472
2023-02-01T02:57:27.000Z,1005.1173840000001
2023-02-01T02:57:55.000Z,1005.1173840000001
2023-02-01T02:58:17.000Z,1004.846472
2023-02-01T02:58:47.000Z,1004.846472
2023-02-01T02:59:17.000Z,1004.9142
2023-02-01T02:59:52.000Z,1004.9142
2023-02-01T03:00:22.000Z,1004.846472
2023-02-01T03:00:52.000Z,1004.846472
2023-02-01T03:01:27.000Z,1004.9142
2023-02-01T03:01:57.000Z,1004.9142
2023-02-01T03:02:32.000Z,1004.846472
2023-02-01T03:03:02.000Z,1005.1173840000001
2023-02-01T03:03:32.000Z,1005.1173840000001
2023-02-01T03:03:59.000Z,1004.9142
2023-02-01T03:04:22.000Z,1004.9142
2023-02-01T03:04:52.000Z,1004.9142
2023-02-01T03:05:27.000Z,1004.846472
2023-02-01T03:05:57.000Z,1004.846472
2023-02-01T03:06:32.000Z,1004.9142
2023-02-01T03:07:02.000Z,1004.74488
2023-02-01T03:07:32.000Z,1004.74488
2023-02-01T03:07:59.000Z,1004.846472
2023-02-01T03:08:22.000Z,1004.846472
2023-02-01T03:08:52.000Z,1004.846472
2023-02-01T03:09:27.000Z,1004.9142
2023-02-01T03:09:57.000Z,1004.9142
2023-02-01T03:10:32.000Z,1004.9142
2023-02-01T03:11:02.000Z,1004.846472
2023-02-01T03:11:32.000Z,1004.846472
2023-02-01T03:11:59.000Z,1004.9142
2023-02-01T03:12:22.000Z,1004.9142
2023-02-01T03:12:52.000Z,1004.9142
2023-02-01T03:13:27.000Z,1004.74488
2023-02-01T03:13:57.000Z,1004.74488
2023-02-01T03:14:42.000Z,1004.74488
2023-02-01T03:15:12.000Z,1004.846472
2023-02-01T03:15:35.000Z,1004.846472
2023-02-01T03:16:02.000Z,1004.9142
2023-02-01T03:16:25.000Z,1004.9142
2023-02-01T03:16:52.000Z,1004.9142
2023-02-01T03:17:27.000Z,1004.74488
2023-02-01T03:17:57.000Z,1004.74488
2023-02-01T03:18:32.000Z,1004.846472
2023-02-01T03:19:02.000Z,1004.541696
2023-02-01T03:19:32.000Z,1004.541696
2023-02-01T03:19:59.000Z,1004.6432880000001
2023-02-01T03:20:22.000Z,1004.6432880000001
2023-02-01T03:20:52.000Z,1004.6432880000001
2023-02-01T03:21:28.000Z,1004.6432880000001
2023-02-01T03:21:57.000Z,1004.6432880000001
2023-02-01T03:22:32.000Z,1004.541696
2023-02-01T03:23:02.000Z,1004.74488
2023-02-01T03:23:32.000Z,1004.74488
2023-02-01T03:23:59.000Z,1004.440104
2023-02-01T03:24:22.000Z,1004.440104
2023-02-01T03:24:52.000Z,1004.440104
2023-02-01T03:25:27.000Z,1004.541696
2023-02-01T03:25:57.000Z,1004.541696
2023-02-01T03:26:32.000Z,1004.338512
2023-02-01T03:27:02.000Z,1004.338512
2023-02-01T03:27:32.000Z,1004.338512
2023-02-01T03:27:59.000Z,1004.440104
2023-02-01T03:28:22.000Z,1004.440104
2023-02-01T03:28:52.000Z,1004.440104
2023-02-01T03:29:27.000Z,1004.338512
2023-02-01T03:30:07.000Z,1004.541696
2023-02-01T03:30:32.000Z,1004.541696
2023-02-01T03:30:57.000Z,1004.23692
2023-02-01T03:31:27.000Z,1004.23692
2023-02-01T03:31:53.000Z,1004.23692
2023-02-01T03:32:22.000Z,1004.440104
2023-02-01T03:32:52.000Z,1004.440104
2023-02-01T03:33:27.000Z,1004.338512
2023-02-01T03:33:57.000Z,1004.338512
2023-02-01T03:34:32.000Z,1004.23692
2023-02-01T03:35:02.000Z,1004.23692
2023-02-01T03:35:32.000Z,1004.23692
2023-02-01T03:35:59.000Z,1004.338512
2023-02-01T03:36:22.000Z,1004.338512
2023-02-01T03:36:53.000Z,1004.338512
2023-02-01T03:37:27.000Z,1004.338512
2023-02-01T03:37:57.000Z,1004.338512
2023-02-01T03:38:42.000Z,1004.23692
2023-02-01T03:39:12.000Z,1004.23692
2023-02-01T03:39:32.000Z,1004.23692
2023-02-01T03:39:59.000Z,1004.338512
2023-02-01T03:40:22.000Z,1004.338512
2023-02-01T03:40:52.000Z,1004.338512
2023-02-01T03:41:27.000Z,1004.440104
2023-02-01T03:41:57.000Z,1004.440104
2023-02-01T03:42:32.000Z,1004.541696
2023-02-01T03:43:02.000Z,1004.541696
2023-02-01T03:43:32.000Z,1004.541696
2023-02-01T03:43:59.000Z,1004.440104
2023-02-01T03:44:22.000Z,1004.440104
2023-02-01T03:44:52.000Z,1004.440104
2023-02-01T03:45:27.000Z,1004.541696
2023-02-01T03:45:55.000Z,1004.541696
2023-02-01T03:46:18.000Z,1004.541696
2023-02-01T03:46:48.000Z,1004.541696
2023-02-01T03:47:17.000Z,1004.440104
2023-02-01T03:47:52.000Z,1004.440104
2023-02-01T03:48:22.000Z,1004.6432880000001
2023-02-01T03:48:52.000Z,1004.6432880000001
2023-02-01T03:49:27.000Z,1004.541696
2023-02-01T03:49:57.000Z,1004.541696
2023-02-01T03:50:32.000Z,1004.440104
2023-02-01T03:51:02.000Z,1004.23692
2023-02-01T03:51:32.000Z,1004.23692
2023-02-01T03:51:59.000Z,1004.338512
2023-02-01T03:52:22.000Z,1004.338512
2023-02-01T03:52:52.000Z,1004.338512
2023-02-01T03:53:27.000Z,1004.338512
2023-02-01T03:53:57.000Z,1004.338512
2023-02-01T03:54:32.000Z,1004.440104
2023-02-01T03:55:02.000Z,1004.541696
2023-02-01T03:55:32.000Z,1004.541696
2023-02-01T03:55:59.000Z,1004.338512
2023-02-01T03:56:22.000Z,1004.338512
2023-02-01T03:56:52.000Z,1004.338512
2023-02-01T03:57:27.000Z,1004.338512
2023-02-01T03:57:57.000Z,1004.338512
2023-02-01T03:58:32.000Z,1004.440104
2023-02-01T03:59:02.000Z,1004.338512
2023-02-01T03:59:32.000Z,1004.338512
2023-02-01T04:00:09.000Z,1004.440104
2023-02-01T04:00:37.000Z,1004.440104
2023-02-01T04:01:02.000Z,1004.135328
2023-02-01T04:01:27.000Z,1004.135328
2023-02-01T04:01:59.000Z,1004.135328
2023-02-01T04:02:32.000Z,1004.23692
2023-02-01T04:03:02.000Z,1004.338512
2023-02-01T04:03:32.000Z,1004.338512
2023-02-01T04:03:59.000Z,1004.135328
2023-02-01T04:04:22.000Z,1004.135328
2023-02-01T04:04:52.000Z,1004.135328
2023-02-01T04:05:27.000Z,1004.23692
2023-02-01T04:05:57.000Z,1004.23692
2023-02-01T04:06:32.000Z,1004.135328
2023-02-01T04:07:12.000Z,1004.135328
2023-02-01T04:07:35.000Z,1004.135328
2023-02-01T04:08:02.000Z,1004.23692
2023-02-01T04:08:25.000Z,1004.23692
2023-02-01T04:08:52.000Z,1004.23692
2023-02-01T04:09:27.000Z,1004.135328
2023-02-01T04:09:58.000Z,1004.135328
2023-02-01T04:10:32.000Z,1004.338512
2023-02-01T04:11:02.000Z,1004.0337360000001
2023-02-01T04:11:32.000Z,1004.0337360000001
2023-02-01T04:11:59.000Z,1004.135328
2023-02-01T04:12:23.000Z,1004.135328
2023-02-01T04:12:52.000Z,1004.135328
2023-02-01T04:13:27.000Z,1004.23692
2023-02-01T04:13:57.000Z,1004.23692
2023-02-01T04:14:32.000Z,1004.135328
2023-02-01T04:15:02.000Z,1004.0337360000001
2023-02-01T04:15:32.000Z,1004.0337360000001
2023-02-01T04:15:59.000Z,1004.135328
2023-02-01T04:16:19.000Z,1004.135328
2023-02-01T04:16:47.000Z,1004.135328
2023-02-01T04:17:14.000Z,1004.23692
2023-02-01T04:17:42.000Z,1004.23692
2023-02-01T04:18:12.000Z,1004.440104
2023-02-01T04:18:47.000Z,1004.440104
2023-02-01T04:19:17.000Z,1004.338512
2023-02-01T04:19:52.000Z,1004.338512
2023-02-01T04:20:22.000Z,1004.23692
2023-02-01T04:20:52.000Z,1004.23692
2023-02-01T04:21:27.000Z,1004.338512
2023-02-01T04:21:57.000Z,1004.338512
2023-02-01T04:22:32.000Z,1004.23692
2023-02-01T04:23:02.000Z,1004.338512
2023-02-01T04:23:42.000Z,1004.338512
2023-02-01T04:24:08.000Z,1004.23692
2023-02-01T04:24:37.000Z,1004.23692
2023-02-01T04:25:02.000Z,1004.135328
2023-02-01T04:25:27.000Z,1004.135328
2023-02-01T04:25:55.000Z,1004.135328
2023-02-01T04:26:18.000Z,1004.338512
2023-02-01T04:26:51.000Z,1004.338512
2023-02-01T04:27:19.000Z,1004.338512
2023-02-01T04:27:52.000Z,1004.338512
2023-02-01T04:28:23.000Z,1004.338512
2023-02-01T04:28:52.000Z,1004.338512
2023-02-01T04:29:27.000Z,1004.338512
2023-02-01T04:29:57.000Z,1004.338512
2023-02-01T04:30:33.000Z,1004.23692
2023-02-01T04:31:02.000Z,1004.23692
2023-02-01T04:31:32.000Z,1004.23692
2023-02-01T04:31:59.000Z,1004.440104
2023-02-01T04:32:22.000Z,1004.440104
2023-02-01T04:32:52.000Z,1004.440104
2023-02-01T04:33:27.000Z,1004.23692
2023-02-01T04:33:57.000Z,1004.23692
2023-02-01T04:34:42.000Z,1004.135328
2023-02-01T04:35:12.000Z,1004.23692
2023-02-01T04:35:35.000Z,1004.23692
2023-02-01T04:36:02.000Z,1004.23692
2023-02-01T04:36:25.000Z,1004.23692
2023-02-01T04:36:52.000Z,1004.23692
2023-02-01T04:37:27.000Z,1004.135328
2023-02-01T04:37:58.000Z,1004.135328
2023-02-01T04:38:32.000Z,1004.135328
2023-02-01T04:39:02.000Z,1004.135328
2023-02-01T04:39:32.000Z,1004.135328
2023-02-01T04:40:00.000Z,1004.23692
2023-02-01T04:40:22.000Z,1004.23692
2023-02-01T04:40:52.000Z,1004.23692
2023-02-01T04:41:27.000Z,1004.0337360000001
2023-02-01T04:41:57.000Z,1004.0337360000001
2023-02-01T04:42:32.000Z,1004.135328
2023-02-01T04:43:02.000Z,1004.135328
2023-02-01T04:43:32.000Z,1004.135328
2023-02-01T04:43:59.000Z,1004.0337360000001
2023-02-01T04:44:23.000Z,1004.0337360000001
2023-02-01T04:44:57.000Z,1004.0337360000001
2023-02-01T04:45:37.000Z,1004.338512
2023-02-01T04:46:07.000Z,1004.23692
2023-02-01T04:46:32.000Z,1004.23692
2023-02-01T04:47:02.000Z,1004.135328
2023-02-01T04:47:32.000Z,1004.135328
2023-02-01T04:47:59.000Z,1004.0337360000001
2023-02-01T04:48:22.000Z,1004.0337360000001
2023-02-01T04:48:52.000Z,1004.0337360000001
2023-02-01T04:49:28.000Z,1004.0337360000001
2023-02-01T04:49:58.000Z,1004.0337360000001
2023-02-01T04:50:32.000Z,1004.23692
2023-02-01T04:51:02.000Z,1004.23692
2023-02-01T04:51:32.000Z,1004.23692
2023-02-01T04:51:59.000Z,1004.135328
2023-02-01T04:52:22.000Z,1004.135328
2023-02-01T04:52:57.000Z,1004.135328
2023-02-01T04:53:37.000Z,1004.23692
2023-02-01T04:54:07.000Z,1004.23692
2023-02-01T04:54:32.000Z,1004.23692
2023-02-01T04:54:57.000Z,1004.135328
2023-02-01T04:55:27.000Z,1004.135328
2023-02-01T04:55:54.000Z,1004.135328
2023-02-01T04:56:19.000Z,1004.338512
2023-02-01T04:56:52.000Z,1004.338512
2023-02-01T04:57:27.000Z,1004.23692
2023-02-01T04:57:57.000Z,1004.23692
2023-02-01T04:58:33.000Z,1004.23692
2023-02-01T04:59:02.000Z,1004.338512
2023-02-01T04:59:32.000Z,1004.338512
2023-02-01T04:59:59.000Z,1004.23692
2023-02-01T05:00:22.000Z,1004.23692
2023-02-01T05:00:52.000Z,1004.23692
2023-02-01T05:01:27.000Z,1004.135328
2023-02-01T05:01:57.000Z,1004.135328